createdAt,value
2023-01-07T00:02:12.295Z,13.90
2023-01-07T00:07:15.089Z,14.70
2023-01-07T00:12:17.791Z,17.90
2023-01-07T00:17:20.440Z,14.40
2023-01-07T00:22:23.288Z,13.60
2023-01-07T00:27:26.032Z,15.20
2023-01-07T00:33:01.250Z,15.50
2023-01-07T00:38:05.362Z,21.30
2023-01-07T00:43:08.183Z,15.00
2023-01-07T00:48:11.471Z,17.40
2023-01-07T00:58:25.114Z,18.40
2023-01-07T01:03:29.691Z,18.30
2023-01-07T01:08:32.544Z,18.70
2023-01-07T01:13:36.123Z,17.70
2023-01-07T01:18:39.362Z,17.30
2023-01-07T01:33:48.656Z,17.50
2023-01-07T01:38:51.963Z,17.50
2023-01-07T01:49:03.506Z,15.60
2023-01-07T01:54:11.387Z,25.10
2023-01-07T01:59:20.786Z,20.90
2023-01-07T02:04:25.970Z,19.80
2023-01-07T02:09:28.888Z,17.50
2023-01-07T02:14:47.939Z,17.10
2023-01-07T02:20:16.977Z,17.10
2023-01-07T02:25:42.041Z,27.20
2023-01-07T02:31:07.378Z,22.10
2023-01-07T02:36:14.371Z,22.40
2023-01-07T02:41:39.348Z,20.20
2023-01-07T02:47:09.938Z,24.90
2023-01-07T02:52:23.132Z,21.30
2023-01-07T02:57:35.896Z,20.40
2023-01-07T03:03:04.287Z,18.10
2023-01-07T03:08:28.747Z,24.40
2023-01-07T03:13:51.424Z,21.40
2023-01-07T03:19:09.831Z,21.00
2023-01-07T03:24:14.889Z,21.50
2023-01-07T03:29:19.928Z,21.90
2023-01-07T03:34:25.049Z,20.20
2023-01-07T03:39:31.871Z,20.40
2023-01-07T03:44:34.815Z,21.30
2023-01-07T03:49:38.588Z,25.10
2023-01-07T03:54:41.530Z,22.50
2023-01-07T03:59:44.209Z,22.40
2023-01-07T04:04:46.914Z,18.70
2023-01-07T04:09:50.844Z,19.40
2023-01-07T04:14:53.553Z,23.00
2023-01-07T04:19:56.284Z,22.00
2023-01-07T04:24:58.920Z,19.30
2023-01-07T04:30:01.608Z,20.50
2023-01-07T04:35:05.019Z,23.30
2023-01-07T04:40:08.839Z,20.40
2023-01-07T04:45:11.688Z,19.80
2023-01-07T04:50:14.838Z,18.70
2023-01-07T04:55:17.801Z,23.50
2023-01-07T05:00:20.516Z,18.90
2023-01-07T05:05:23.297Z,20.50
2023-01-07T05:10:25.984Z,20.90
2023-01-07T05:15:28.642Z,22.50
2023-01-07T05:20:31.305Z,21.80
2023-01-07T05:25:35.212Z,20.80
2023-01-07T05:30:39.548Z,18.90
2023-01-07T05:35:42.351Z,23.40
2023-01-07T05:40:49.849Z,21.30
2023-01-07T05:45:52.993Z,19.30
2023-01-07T05:50:55.732Z,17.60
2023-01-07T05:55:59.791Z,23.60
2023-01-07T06:01:03.053Z,19.60
2023-01-07T06:11:10.460Z,17.40
2023-01-07T06:16:14.623Z,24.20
2023-01-07T06:21:18.533Z,21.40
2023-01-07T06:26:21.212Z,22.60
2023-01-07T06:31:23.999Z,24.80
2023-01-07T06:36:26.977Z,26.40
2023-01-07T06:41:29.681Z,24.50
2023-01-07T06:46:32.431Z,22.50
2023-01-07T06:51:35.539Z,25.60
2023-01-07T06:56:38.328Z,22.70
2023-01-07T07:01:41.184Z,21.00
2023-01-07T07:06:44.037Z,22.40
2023-01-07T07:11:46.789Z,28.70
2023-01-07T07:16:49.740Z,27.50
2023-01-07T07:21:52.441Z,27.50
2023-01-07T07:26:55.220Z,24.30
2023-01-07T07:31:57.888Z,28.20
2023-01-07T07:37:01.425Z,25.00
2023-01-07T07:42:05.359Z,23.70
2023-01-07T07:47:12.097Z,21.70
2023-01-07T07:52:14.769Z,29.70
2023-01-07T07:57:17.470Z,27.10
2023-01-07T08:02:20.231Z,27.70
2023-01-07T08:07:32.147Z,27.90
2023-01-07T08:17:40.767Z,28.30
2023-01-07T08:22:43.496Z,28.80
2023-01-07T08:27:46.476Z,27.40
2023-01-07T08:32:49.371Z,27.70
2023-01-07T08:37:52.160Z,26.00
2023-01-07T08:42:58.989Z,27.10
2023-01-07T08:48:01.978Z,23.50
2023-01-07T08:53:04.775Z,26.60
2023-01-07T08:58:07.568Z,26.20
2023-01-07T09:03:10.257Z,27.70
2023-01-07T09:08:12.966Z,23.70
2023-01-07T09:13:15.986Z,24.50
2023-01-07T09:18:19.760Z,23.90
2023-01-07T09:23:22.721Z,21.70
2023-01-07T09:28:25.505Z,23.20
2023-01-07T09:33:28.205Z,24.80
2023-01-07T09:38:31.212Z,28.90
2023-01-07T09:44:00.715Z,26.80
2023-01-07T09:49:04.510Z,26.70
2023-01-07T09:54:18.796Z,26.70
2023-01-07T09:59:21.763Z,24.60
2023-01-07T10:04:53.089Z,25.00
2023-01-07T10:10:02.255Z,22.80
2023-01-07T10:15:33.181Z,22.10
2023-01-07T10:20:50.086Z,20.20
2023-01-07T10:25:56.044Z,21.40
2023-01-07T10:31:00.860Z,25.90
2023-01-07T10:36:23.974Z,21.40
2023-01-07T10:42:05.054Z,24.20
2023-01-07T10:47:30.996Z,21.30
2023-01-07T10:52:43.757Z,22.60
2023-01-07T10:57:48.652Z,26.10
2023-01-07T11:02:56.601Z,18.40
2023-01-07T11:08:04.321Z,20.40
2023-01-07T11:13:14.712Z,22.00
2023-01-07T11:18:36.425Z,17.40
2023-01-07T11:23:43.769Z,22.50
2023-01-07T11:28:53.634Z,25.80
2023-01-07T11:34:01.425Z,25.80
2023-01-07T11:39:31.348Z,27.30
2023-01-07T11:44:34.001Z,25.40
2023-01-07T11:49:44.347Z,21.70
2023-01-07T11:54:53.696Z,21.00
2023-01-07T12:00:13.781Z,16.70
2023-01-07T12:05:23.672Z,21.50
2023-01-07T12:10:34.321Z,20.80
2023-01-07T12:15:48.889Z,18.30
2023-01-07T12:21:19.574Z,20.80
2023-01-07T12:26:32.464Z,23.90
2023-01-07T12:31:58.240Z,21.50
2023-01-07T12:37:13.148Z,20.60
2023-01-07T12:42:30.221Z,21.90
2023-01-07T12:47:37.694Z,20.00
2023-01-07T12:52:46.175Z,22.10
2023-01-07T12:58:14.976Z,22.20
2023-01-07T13:03:45.395Z,24.10
2023-01-07T13:09:09.834Z,18.90
2023-01-07T13:14:21.299Z,20.90
2023-01-07T13:19:24.221Z,20.70
2023-01-07T13:24:55.143Z,18.70
2023-01-07T13:30:39.151Z,17.30
2023-01-07T13:36:12.142Z,17.60
2023-01-07T13:41:40.645Z,19.30
2023-01-07T13:46:45.775Z,18.50
2023-01-07T13:51:48.683Z,20.00
2023-01-07T13:56:52.745Z,19.70
2023-01-07T14:02:18.218Z,19.90
2023-01-07T14:07:21.199Z,20.40
2023-01-07T14:12:44.020Z,23.50
2023-01-07T14:18:08.055Z,23.10
2023-01-07T14:23:25.165Z,26.10
2023-01-07T14:28:55.629Z,24.40
2023-01-07T14:34:05.089Z,25.30
2023-01-07T14:39:33.701Z,28.90
2023-01-07T14:44:36.373Z,24.00
2023-01-07T14:49:50.464Z,20.60
2023-01-07T14:55:11.687Z,23.50
2023-01-07T15:00:36.106Z,21.10
2023-01-07T15:06:00.203Z,20.70
2023-01-07T15:11:22.986Z,17.80
2023-01-07T15:16:26.241Z,19.00
2023-01-07T15:26:43.557Z,20.00
2023-01-07T15:31:57.906Z,21.50
2023-01-07T15:37:05.652Z,19.40
2023-01-07T15:42:16.256Z,19.50
2023-01-07T15:47:41.610Z,20.30
2023-01-07T15:52:50.341Z,19.90
2023-01-07T15:57:59.145Z,22.10
2023-01-07T16:03:04.411Z,21.90
2023-01-07T16:08:20.209Z,23.20
2023-01-07T16:13:22.911Z,24.90
2023-01-07T16:18:25.680Z,20.00
2023-01-07T16:23:39.568Z,16.70
2023-01-07T16:28:53.820Z,16.90
2023-01-07T16:33:59.674Z,19.60
2023-01-07T16:39:14.290Z,25.20
2023-01-07T16:44:54.840Z,25.60
2023-01-07T16:50:16.148Z,18.00
2023-01-07T16:55:54.701Z,19.60
2023-01-07T17:01:00.651Z,18.70
2023-01-07T17:06:07.305Z,16.60
2023-01-07T17:11:40.225Z,19.80
2023-01-07T17:16:42.980Z,19.90
2023-01-07T17:21:45.827Z,20.80
2023-01-07T17:26:51.424Z,23.90
2023-01-07T17:31:54.953Z,25.70
2023-01-07T17:36:57.771Z,18.80
2023-01-07T17:42:19.282Z,21.00
2023-01-07T17:47:22.381Z,21.50
2023-01-07T17:52:25.179Z,21.40
2023-01-07T17:57:27.880Z,21.90
2023-01-07T18:02:31.704Z,26.50
2023-01-07T18:07:34.558Z,22.60
2023-01-07T18:12:37.282Z,22.40
2023-01-07T18:17:39.937Z,20.60
2023-01-07T18:22:43.196Z,22.90
2023-01-07T18:32:51.383Z,31.00
2023-01-07T18:37:54.090Z,25.50
2023-01-07T18:42:56.782Z,28.80
2023-01-07T18:47:59.446Z,27.50
2023-01-07T18:53:02.985Z,27.20
2023-01-07T18:58:06.696Z,27.80
2023-01-07T19:03:10.691Z,31.10
2023-01-07T19:08:13.489Z,28.50
2023-01-07T19:13:16.198Z,26.70
2023-01-07T19:18:18.859Z,34.10
2023-01-07T19:23:22.521Z,34.50
2023-01-07T19:28:25.752Z,27.10
2023-01-07T19:38:31.360Z,24.20
2023-01-07T19:43:34.052Z,31.80
2023-01-07T19:48:36.740Z,26.50
2023-01-07T19:53:39.756Z,26.90
2023-01-07T19:58:42.569Z,25.00
2023-01-07T20:03:45.801Z,28.30
2023-01-07T20:13:51.568Z,24.10
2023-01-07T20:18:55.641Z,26.10
2023-01-07T20:23:58.367Z,28.70
2023-01-07T20:29:01.906Z,23.20
2023-01-07T20:34:04.624Z,19.50
2023-01-07T20:39:07.423Z,19.40
2023-01-07T20:44:11.937Z,27.00
2023-01-07T20:49:15.902Z,23.70
2023-01-07T20:54:18.887Z,20.70
2023-01-07T20:59:21.539Z,22.70
2023-01-07T21:04:24.362Z,25.50
2023-01-07T21:09:30.886Z,24.20
2023-01-07T21:14:33.680Z,23.60
2023-01-07T21:19:38.206Z,22.70
2023-01-07T21:24:40.874Z,26.30
2023-01-07T21:29:45.160Z,23.00
2023-01-07T21:34:47.849Z,23.80
2023-01-07T21:39:51.382Z,22.90
2023-01-07T21:44:54.047Z,16.50
2023-01-07T21:49:57.010Z,19.00
2023-01-07T21:54:59.681Z,19.60
2023-01-07T22:00:03.885Z,20.00
2023-01-07T22:05:07.186Z,26.70
2023-01-07T22:15:12.541Z,25.20
2023-01-07T22:20:15.429Z,24.50
2023-01-07T22:25:18.122Z,27.60
2023-01-07T22:30:22.049Z,25.10
2023-01-07T22:35:25.456Z,24.90
2023-01-07T22:40:32.489Z,22.10
2023-01-07T22:45:44.246Z,30.30
2023-01-07T22:50:47.167Z,24.70
2023-01-07T22:55:49.966Z,23.90
2023-01-07T23:00:52.755Z,21.80
2023-01-07T23:05:55.857Z,26.00
2023-01-07T23:10:58.593Z,22.40
2023-01-07T23:16:03.745Z,24.20
2023-01-07T23:21:06.855Z,20.10
2023-01-07T23:26:13.867Z,22.60
2023-01-07T23:31:16.789Z,28.90
2023-01-07T23:36:19.661Z,23.80
2023-01-07T23:41:22.730Z,20.00
2023-01-07T23:46:25.479Z,20.80
2023-01-07T23:51:28.221Z,26.80
2023-01-07T23:56:30.970Z,23.60
